sensor_id;sensor_type;location;lat;lon;timestamp;temperature;humidity
49224;DHT22;35050;51.316;5.994;2023-05-29T00:01:42;15.80;99.90
49224;DHT22;35050;51.316;5.994;2023-05-29T00:04:08;16.00;99.90
49224;DHT22;35050;51.316;5.994;2023-05-29T00:06:33;15.90;99.90
49224;DHT22;35050;51.316;5.994;2023-05-29T00:08:59;15.90;99.90
49224;DHT22;35050;51.316;5.994;2023-05-29T00:11:25;15.60;99.90
49224;DHT22;35050;51.316;5.994;2023-05-29T00:13:51;15.70;99.90
49224;DHT22;35050;51.316;5.994;2023-05-29T00:16:16;15.50;99.90
49224;DHT22;35050;51.316;5.994;2023-05-29T00:18:43;15.50;99.90
49224;DHT22;35050;51.316;5.994;2023-05-29T00:21:11;15.50;99.90
49224;DHT22;35050;51.316;5.994;2023-05-29T00:23:38;15.50;99.90
49224;DHT22;35050;51.316;5.994;2023-05-29T00:26:03;15.50;99.90
49224;DHT22;35050;51.316;5.994;2023-05-29T00:28:29;15.30;99.90
49224;DHT22;35050;51.316;5.994;2023-05-29T00:30:55;15.40;99.90
49224;DHT22;35050;51.316;5.994;2023-05-29T00:33:20;15.30;99.90
49224;DHT22;35050;51.316;5.994;2023-05-29T00:35:46;15.30;99.90
49224;DHT22;35050;51.316;5.994;2023-05-29T00:38:11;15.30;99.90
49224;DHT22;35050;51.316;5.994;2023-05-29T00:40:37;15.20;99.90
49224;DHT22;35050;51.316;5.994;2023-05-29T00:43:04;15.00;99.90
49224;DHT22;35050;51.316;5.994;2023-05-29T00:45:30;15.00;99.90
49224;DHT22;35050;51.316;5.994;2023-05-29T00:47:57;15.00;99.90
49224;DHT22;35050;51.316;5.994;2023-05-29T00:50:23;14.70;99.90
49224;DHT22;35050;51.316;5.994;2023-05-29T00:52:50;14.70;99.90
49224;DHT22;35050;51.316;5.994;2023-05-29T00:55:15;14.80;99.90
49224;DHT22;35050;51.316;5.994;2023-05-29T00:57:42;14.80;99.90
49224;DHT22;35050;51.316;5.994;2023-05-29T01:00:08;14.70;99.90
49224;DHT22;35050;51.316;5.994;2023-05-29T01:02:40;14.50;99.90
49224;DHT22;35050;51.316;5.994;2023-05-29T01:05:06;14.50;99.90
49224;DHT22;35050;51.316;5.994;2023-05-29T01:07:35;14.60;99.90
49224;DHT22;35050;51.316;5.994;2023-05-29T01:10:00;14.40;99.90
49224;DHT22;35050;51.316;5.994;2023-05-29T01:12:40;14.30;99.90
49224;DHT22;35050;51.316;5.994;2023-05-29T01:20:38;14.10;99.90
49224;DHT22;35050;51.316;5.994;2023-05-29T01:28:52;14.00;99.90
49224;DHT22;35050;51.316;5.994;2023-05-29T01:31:20;14.10;99.90
49224;DHT22;35050;51.316;5.994;2023-05-29T01:33:58;13.90;99.90
49224;DHT22;35050;51.316;5.994;2023-05-29T01:36:25;14.00;99.90
49224;DHT22;35050;51.316;5.994;2023-05-29T01:38:53;14.00;99.90
49224;DHT22;35050;51.316;5.994;2023-05-29T01:41:20;14.00;99.90
49224;DHT22;35050;51.316;5.994;2023-05-29T01:43:47;13.70;99.90
49224;DHT22;35050;51.316;5.994;2023-05-29T01:46:14;13.70;99.90
49224;DHT22;35050;51.316;5.994;2023-05-29T01:48:41;13.80;99.90
49224;DHT22;35050;51.316;5.994;2023-05-29T01:51:07;13.70;99.90
49224;DHT22;35050;51.316;5.994;2023-05-29T01:53:33;13.70;99.90
49224;DHT22;35050;51.316;5.994;2023-05-29T01:55:59;13.70;99.90
49224;DHT22;35050;51.316;5.994;2023-05-29T01:58:26;13.50;99.90
49224;DHT22;35050;51.316;5.994;2023-05-29T02:00:53;13.50;99.90
49224;DHT22;35050;51.316;5.994;2023-05-29T02:03:20;13.70;99.90
49224;DHT22;35050;51.316;5.994;2023-05-29T02:05:46;13.40;99.90
49224;DHT22;35050;51.316;5.994;2023-05-29T02:08:12;13.40;99.90
49224;DHT22;35050;51.316;5.994;2023-05-29T02:10:38;13.40;99.90
49224;DHT22;35050;51.316;5.994;2023-05-29T02:13:03;13.30;99.90
49224;DHT22;35050;51.316;5.994;2023-05-29T02:15:29;13.20;99.90
49224;DHT22;35050;51.316;5.994;2023-05-29T02:17:55;13.30;99.90
49224;DHT22;35050;51.316;5.994;2023-05-29T02:20:20;13.30;99.90
49224;DHT22;35050;51.316;5.994;2023-05-29T02:22:46;13.40;99.90
49224;DHT22;35050;51.316;5.994;2023-05-29T02:25:12;13.40;99.90
49224;DHT22;35050;51.316;5.994;2023-05-29T02:27:37;13.20;99.90
49224;DHT22;35050;51.316;5.994;2023-05-29T02:30:03;13.10;99.90
49224;DHT22;35050;51.316;5.994;2023-05-29T02:32:30;13.10;99.90
49224;DHT22;35050;51.316;5.994;2023-05-29T02:34:57;13.10;99.90
49224;DHT22;35050;51.316;5.994;2023-05-29T02:37:23;13.10;99.90
49224;DHT22;35050;51.316;5.994;2023-05-29T02:39:51;13.30;99.90
49224;DHT22;35050;51.316;5.994;2023-05-29T02:42:16;13.00;99.90
49224;DHT22;35050;51.316;5.994;2023-05-29T02:44:42;13.20;99.90
49224;DHT22;35050;51.316;5.994;2023-05-29T02:47:08;13.20;99.90
49224;DHT22;35050;51.316;5.994;2023-05-29T02:49:34;13.30;99.90
49224;DHT22;35050;51.316;5.994;2023-05-29T02:51:59;13.20;99.90
49224;DHT22;35050;51.316;5.994;2023-05-29T02:54:25;13.30;99.90
49224;DHT22;35050;51.316;5.994;2023-05-29T02:56:51;13.20;99.90
49224;DHT22;35050;51.316;5.994;2023-05-29T02:59:17;13.00;99.90
49224;DHT22;35050;51.316;5.994;2023-05-29T03:01:43;13.20;99.90
49224;DHT22;35050;51.316;5.994;2023-05-29T03:04:11;13.20;99.90
49224;DHT22;35050;51.316;5.994;2023-05-29T03:06:37;13.00;99.90
49224;DHT22;35050;51.316;5.994;2023-05-29T03:09:03;13.10;99.90
49224;DHT22;35050;51.316;5.994;2023-05-29T03:11:32;13.10;99.90
49224;DHT22;35050;51.316;5.994;2023-05-29T03:13:58;13.00;99.90
49224;DHT22;35050;51.316;5.994;2023-05-29T03:16:24;13.00;99.90
49224;DHT22;35050;51.316;5.994;2023-05-29T03:18:50;13.00;99.90
49224;DHT22;35050;51.316;5.994;2023-05-29T03:21:16;12.80;99.90
49224;DHT22;35050;51.316;5.994;2023-05-29T03:23:42;12.80;99.90
49224;DHT22;35050;51.316;5.994;2023-05-29T03:26:08;12.90;99.90
49224;DHT22;35050;51.316;5.994;2023-05-29T03:28:34;12.80;99.90
49224;DHT22;35050;51.316;5.994;2023-05-29T03:30:59;12.90;99.90
49224;DHT22;35050;51.316;5.994;2023-05-29T03:33:25;12.80;99.90
49224;DHT22;35050;51.316;5.994;2023-05-29T03:35:51;12.80;99.90
49224;DHT22;35050;51.316;5.994;2023-05-29T03:38:17;12.70;99.90
49224;DHT22;35050;51.316;5.994;2023-05-29T03:40:42;12.80;99.90
49224;DHT22;35050;51.316;5.994;2023-05-29T03:43:08;12.80;99.90
49224;DHT22;35050;51.316;5.994;2023-05-29T03:45:34;12.80;99.90
49224;DHT22;35050;51.316;5.994;2023-05-29T03:47:59;12.80;99.90
49224;DHT22;35050;51.316;5.994;2023-05-29T03:50:25;12.50;99.90
49224;DHT22;35050;51.316;5.994;2023-05-29T03:52:51;12.80;99.90
49224;DHT22;35050;51.316;5.994;2023-05-29T03:55:16;12.40;99.90
49224;DHT22;35050;51.316;5.994;2023-05-29T03:57:42;12.60;99.90
49224;DHT22;35050;51.316;5.994;2023-05-29T04:00:09;12.50;99.90
49224;DHT22;35050;51.316;5.994;2023-05-29T04:02:38;12.50;99.90
49224;DHT22;35050;51.316;5.994;2023-05-29T04:05:07;12.40;99.90
49224;DHT22;35050;51.316;5.994;2023-05-29T04:07:35;12.50;99.90
49224;DHT22;35050;51.316;5.994;2023-05-29T04:10:02;12.50;99.90
49224;DHT22;35050;51.316;5.994;2023-05-29T04:12:28;12.50;99.90
49224;DHT22;35050;51.316;5.994;2023-05-29T04:14:54;12.50;99.90
49224;DHT22;35050;51.316;5.994;2023-05-29T04:17:20;12.50;99.90
49224;DHT22;35050;51.316;5.994;2023-05-29T04:19:45;12.60;99.90
49224;DHT22;35050;51.316;5.994;2023-05-29T04:22:11;12.50;99.90
49224;DHT22;35050;51.316;5.994;2023-05-29T04:24:37;12.40;99.90
49224;DHT22;35050;51.316;5.994;2023-05-29T04:27:02;12.40;99.90
49224;DHT22;35050;51.316;5.994;2023-05-29T04:29:31;12.30;99.90
49224;DHT22;35050;51.316;5.994;2023-05-29T04:31:59;12.30;99.90
49224;DHT22;35050;51.316;5.994;2023-05-29T04:34:29;12.40;99.90
49224;DHT22;35050;51.316;5.994;2023-05-29T04:36:56;12.40;99.90
49224;DHT22;35050;51.316;5.994;2023-05-29T04:39:24;12.40;99.90
49224;DHT22;35050;51.316;5.994;2023-05-29T04:41:50;12.50;99.90
49224;DHT22;35050;51.316;5.994;2023-05-29T04:44:17;12.30;99.90
49224;DHT22;35050;51.316;5.994;2023-05-29T04:46:43;12.50;99.90
49224;DHT22;35050;51.316;5.994;2023-05-29T04:49:12;12.50;99.90
49224;DHT22;35050;51.316;5.994;2023-05-29T04:51:40;12.40;99.90
49224;DHT22;35050;51.316;5.994;2023-05-29T04:54:10;12.40;99.90
49224;DHT22;35050;51.316;5.994;2023-05-29T04:56:36;12.40;99.90
49224;DHT22;35050;51.316;5.994;2023-05-29T04:59:02;12.40;99.90
49224;DHT22;35050;51.316;5.994;2023-05-29T05:01:28;12.30;99.90
49224;DHT22;35050;51.316;5.994;2023-05-29T05:03:54;12.50;99.90
49224;DHT22;35050;51.316;5.994;2023-05-29T05:06:23;12.40;99.90
49224;DHT22;35050;51.316;5.994;2023-05-29T05:08:51;12.50;99.90
49224;DHT22;35050;51.316;5.994;2023-05-29T05:11:18;12.50;99.90
49224;DHT22;35050;51.316;5.994;2023-05-29T05:13:43;12.60;99.90
49224;DHT22;35050;51.316;5.994;2023-05-29T05:16:09;12.60;99.90
49224;DHT22;35050;51.316;5.994;2023-05-29T05:18:36;12.60;99.90
49224;DHT22;35050;51.316;5.994;2023-05-29T05:21:02;12.70;99.90
49224;DHT22;35050;51.316;5.994;2023-05-29T05:23:29;12.80;99.90
49224;DHT22;35050;51.316;5.994;2023-05-29T05:25:55;12.90;99.90
49224;DHT22;35050;51.316;5.994;2023-05-29T05:28:21;12.90;99.90
49224;DHT22;35050;51.316;5.994;2023-05-29T05:30:47;12.70;99.90
49224;DHT22;35050;51.316;5.994;2023-05-29T05:33:12;12.80;99.90
49224;DHT22;35050;51.316;5.994;2023-05-29T05:35:38;12.90;99.90
49224;DHT22;35050;51.316;5.994;2023-05-29T05:38:04;12.90;99.90
49224;DHT22;35050;51.316;5.994;2023-05-29T05:40:29;12.80;99.90
49224;DHT22;35050;51.316;5.994;2023-05-29T05:42:55;12.90;99.90
49224;DHT22;35050;51.316;5.994;2023-05-29T05:45:21;13.00;99.90
49224;DHT22;35050;51.316;5.994;2023-05-29T05:47:47;13.00;99.90
49224;DHT22;35050;51.316;5.994;2023-05-29T05:50:12;13.10;99.90
49224;DHT22;35050;51.316;5.994;2023-05-29T05:52:38;13.00;99.90
49224;DHT22;35050;51.316;5.994;2023-05-29T05:55:04;13.20;99.90
49224;DHT22;35050;51.316;5.994;2023-05-29T05:57:30;13.40;99.90
49224;DHT22;35050;51.316;5.994;2023-05-29T05:59:58;13.20;99.90
49224;DHT22;35050;51.316;5.994;2023-05-29T06:02:24;13.30;99.90
49224;DHT22;35050;51.316;5.994;2023-05-29T06:04:50;13.50;99.90
49224;DHT22;35050;51.316;5.994;2023-05-29T06:07:16;13.70;99.90
49224;DHT22;35050;51.316;5.994;2023-05-29T06:09:43;13.60;99.90
49224;DHT22;35050;51.316;5.994;2023-05-29T06:12:08;13.60;99.90
49224;DHT22;35050;51.316;5.994;2023-05-29T06:14:35;13.60;99.90
49224;DHT22;35050;51.316;5.994;2023-05-29T06:17:00;13.80;99.90
49224;DHT22;35050;51.316;5.994;2023-05-29T06:19:26;13.70;99.90
49224;DHT22;35050;51.316;5.994;2023-05-29T06:21:52;13.90;99.90
49224;DHT22;35050;51.316;5.994;2023-05-29T06:24:17;14.00;99.90
49224;DHT22;35050;51.316;5.994;2023-05-29T06:26:43;14.10;99.90
49224;DHT22;35050;51.316;5.994;2023-05-29T06:29:09;14.30;99.90
49224;DHT22;35050;51.316;5.994;2023-05-29T06:31:34;14.30;99.90
49224;DHT22;35050;51.316;5.994;2023-05-29T06:34:00;14.20;99.90
49224;DHT22;35050;51.316;5.994;2023-05-29T06:36:26;14.30;99.90
49224;DHT22;35050;51.316;5.994;2023-05-29T06:38:51;14.50;99.90
49224;DHT22;35050;51.316;5.994;2023-05-29T06:41:17;14.50;99.90
49224;DHT22;35050;51.316;5.994;2023-05-29T06:43:43;14.30;99.90
49224;DHT22;35050;51.316;5.994;2023-05-29T06:46:10;14.30;99.90
49224;DHT22;35050;51.316;5.994;2023-05-29T06:48:35;14.40;99.90
49224;DHT22;35050;51.316;5.994;2023-05-29T06:51:02;14.50;99.90
49224;DHT22;35050;51.316;5.994;2023-05-29T06:53:38;14.60;99.90
49224;DHT22;35050;51.316;5.994;2023-05-29T06:56:07;14.70;99.90
49224;DHT22;35050;51.316;5.994;2023-05-29T06:58:33;14.80;99.90
49224;DHT22;35050;51.316;5.994;2023-05-29T07:00:59;15.00;99.90
49224;DHT22;35050;51.316;5.994;2023-05-29T07:03:26;14.80;99.90
49224;DHT22;35050;51.316;5.994;2023-05-29T07:05:52;14.80;99.90
49224;DHT22;35050;51.316;5.994;2023-05-29T07:08:18;15.00;99.90
49224;DHT22;35050;51.316;5.994;2023-05-29T07:10:44;15.00;99.90
49224;DHT22;35050;51.316;5.994;2023-05-29T07:13:10;15.20;99.90
49224;DHT22;35050;51.316;5.994;2023-05-29T07:15:37;15.00;99.90
49224;DHT22;35050;51.316;5.994;2023-05-29T07:18:03;15.30;99.90
49224;DHT22;35050;51.316;5.994;2023-05-29T07:20:29;15.30;99.90
49224;DHT22;35050;51.316;5.994;2023-05-29T07:22:55;15.30;99.90
49224;DHT22;35050;51.316;5.994;2023-05-29T07:25:20;15.50;99.90
49224;DHT22;35050;51.316;5.994;2023-05-29T07:27:46;15.50;99.90
49224;DHT22;35050;51.316;5.994;2023-05-29T07:30:12;15.80;99.90
49224;DHT22;35050;51.316;5.994;2023-05-29T07:32:38;15.90;99.90
49224;DHT22;35050;51.316;5.994;2023-05-29T07:35:04;15.90;99.90
49224;DHT22;35050;51.316;5.994;2023-05-29T07:37:29;16.00;99.90
49224;DHT22;35050;51.316;5.994;2023-05-29T07:39:56;16.00;99.90
49224;DHT22;35050;51.316;5.994;2023-05-29T07:42:22;16.50;99.90
49224;DHT22;35050;51.316;5.994;2023-05-29T07:44:48;16.40;99.90
49224;DHT22;35050;51.316;5.994;2023-05-29T07:47:14;16.30;99.90
49224;DHT22;35050;51.316;5.994;2023-05-29T07:49:39;16.50;99.90
49224;DHT22;35050;51.316;5.994;2023-05-29T07:52:05;16.40;99.90
49224;DHT22;35050;51.316;5.994;2023-05-29T07:54:34;16.40;99.90
49224;DHT22;35050;51.316;5.994;2023-05-29T07:57:00;16.50;99.90
49224;DHT22;35050;51.316;5.994;2023-05-29T07:59:26;16.30;99.90
49224;DHT22;35050;51.316;5.994;2023-05-29T08:01:52;16.50;99.80
49224;DHT22;35050;51.316;5.994;2023-05-29T08:04:17;16.50;99.90
49224;DHT22;35050;51.316;5.994;2023-05-29T08:06:43;16.60;99.60
49224;DHT22;35050;51.316;5.994;2023-05-29T08:09:09;16.80;99.40
49224;DHT22;35050;51.316;5.994;2023-05-29T08:11:36;17.10;99.20
49224;DHT22;35050;51.316;5.994;2023-05-29T08:14:02;17.30;99.10
49224;DHT22;35050;51.316;5.994;2023-05-29T08:16:28;17.60;98.60
49224;DHT22;35050;51.316;5.994;2023-05-29T08:18:54;17.40;98.60
49224;DHT22;35050;51.316;5.994;2023-05-29T08:21:20;17.70;98.70
49224;DHT22;35050;51.316;5.994;2023-05-29T08:23:46;17.60;97.90
49224;DHT22;35050;51.316;5.994;2023-05-29T08:26:11;17.40;97.80
49224;DHT22;35050;51.316;5.994;2023-05-29T08:28:38;17.60;97.80
49224;DHT22;35050;51.316;5.994;2023-05-29T08:31:03;17.60;97.80
49224;DHT22;35050;51.316;5.994;2023-05-29T08:33:29;17.70;97.80
49224;DHT22;35050;51.316;5.994;2023-05-29T08:35:58;17.80;97.50
49224;DHT22;35050;51.316;5.994;2023-05-29T08:38:23;18.10;97.40
49224;DHT22;35050;51.316;5.994;2023-05-29T08:40:51;18.10;96.90
49224;DHT22;35050;51.316;5.994;2023-05-29T08:43:21;18.20;97.00
49224;DHT22;35050;51.316;5.994;2023-05-29T08:45:50;18.10;97.00
49224;DHT22;35050;51.316;5.994;2023-05-29T08:48:18;18.10;96.90
49224;DHT22;35050;51.316;5.994;2023-05-29T08:50:46;18.20;96.70
49224;DHT22;35050;51.316;5.994;2023-05-29T08:53:14;18.50;96.50
49224;DHT22;35050;51.316;5.994;2023-05-29T08:55:40;18.20;96.40
49224;DHT22;35050;51.316;5.994;2023-05-29T08:58:06;18.50;96.30
49224;DHT22;35050;51.316;5.994;2023-05-29T09:00:32;18.80;96.50
49224;DHT22;35050;51.316;5.994;2023-05-29T09:02:58;18.60;96.60
49224;DHT22;35050;51.316;5.994;2023-05-29T09:05:28;19.00;96.30
49224;DHT22;35050;51.316;5.994;2023-05-29T09:07:55;19.40;96.00
49224;DHT22;35050;51.316;5.994;2023-05-29T09:10:21;19.20;94.60
49224;DHT22;35050;51.316;5.994;2023-05-29T09:12:48;19.10;95.20
49224;DHT22;35050;51.316;5.994;2023-05-29T09:15:18;19.10;95.50
49224;DHT22;35050;51.316;5.994;2023-05-29T09:17:52;19.60;95.00
49224;DHT22;35050;51.316;5.994;2023-05-29T09:20:19;19.70;95.60
49224;DHT22;35050;51.316;5.994;2023-05-29T09:22:55;19.70;95.00
49224;DHT22;35050;51.316;5.994;2023-05-29T09:25:24;19.40;94.60
49224;DHT22;35050;51.316;5.994;2023-05-29T09:30:39;19.50;94.60
49224;DHT22;35050;51.316;5.994;2023-05-29T09:33:06;19.50;93.80
49224;DHT22;35050;51.316;5.994;2023-05-29T09:35:42;19.90;94.40
49224;DHT22;35050;51.316;5.994;2023-05-29T09:38:10;19.90;93.60
49224;DHT22;35050;51.316;5.994;2023-05-29T09:40:37;19.60;93.90
49224;DHT22;35050;51.316;5.994;2023-05-29T09:43:16;19.80;94.20
49224;DHT22;35050;51.316;5.994;2023-05-29T09:45:44;19.80;93.80
49224;DHT22;35050;51.316;5.994;2023-05-29T09:48:15;19.60;93.30
49224;DHT22;35050;51.316;5.994;2023-05-29T09:50:42;20.10;93.60
49224;DHT22;35050;51.316;5.994;2023-05-29T09:53:21;19.80;93.60
49224;DHT22;35050;51.316;5.994;2023-05-29T09:55:54;19.90;93.60
49224;DHT22;35050;51.316;5.994;2023-05-29T09:58:21;20.30;93.20
49224;DHT22;35050;51.316;5.994;2023-05-29T10:00:47;20.80;93.20
49224;DHT22;35050;51.316;5.994;2023-05-29T10:03:14;20.60;92.40
49224;DHT22;35050;51.316;5.994;2023-05-29T10:05:40;20.60;93.10
49224;DHT22;35050;51.316;5.994;2023-05-29T10:08:13;20.70;92.50
49224;DHT22;35050;51.316;5.994;2023-05-29T10:10:43;20.90;91.70
49224;DHT22;35050;51.316;5.994;2023-05-29T10:13:11;20.80;92.40
49224;DHT22;35050;51.316;5.994;2023-05-29T10:15:37;21.30;92.30
49224;DHT22;35050;51.316;5.994;2023-05-29T10:18:18;21.70;92.20
49224;DHT22;35050;51.316;5.994;2023-05-29T10:20:49;21.80;92.00
49224;DHT22;35050;51.316;5.994;2023-05-29T10:23:18;21.70;90.90
49224;DHT22;35050;51.316;5.994;2023-05-29T10:25:46;21.90;91.00
49224;DHT22;35050;51.316;5.994;2023-05-29T10:28:14;21.50;91.10
49224;DHT22;35050;51.316;5.994;2023-05-29T10:30:52;21.40;91.60
49224;DHT22;35050;51.316;5.994;2023-05-29T10:38:29;21.80;91.00
49224;DHT22;35050;51.316;5.994;2023-05-29T10:40:55;21.60;90.70
49224;DHT22;35050;51.316;5.994;2023-05-29T10:43:34;21.50;90.70
49224;DHT22;35050;51.316;5.994;2023-05-29T10:46:02;21.90;90.70
49224;DHT22;35050;51.316;5.994;2023-05-29T10:48:36;21.90;90.90
49224;DHT22;35050;51.316;5.994;2023-05-29T10:51:02;22.00;90.60
49224;DHT22;35050;51.316;5.994;2023-05-29T10:53:32;22.40;89.50
49224;DHT22;35050;51.316;5.994;2023-05-29T10:56:01;22.20;89.60
49224;DHT22;35050;51.316;5.994;2023-05-29T10:58:27;22.20;90.00
49224;DHT22;35050;51.316;5.994;2023-05-29T11:00:55;22.30;90.10
49224;DHT22;35050;51.316;5.994;2023-05-29T11:03:30;22.40;89.10
49224;DHT22;35050;51.316;5.994;2023-05-29T11:05:56;22.30;89.60
49224;DHT22;35050;51.316;5.994;2023-05-29T11:08:44;22.70;88.30
49224;DHT22;35050;51.316;5.994;2023-05-29T11:11:30;22.80;89.10
49224;DHT22;35050;51.316;5.994;2023-05-29T11:14:02;23.00;87.00
49224;DHT22;35050;51.316;5.994;2023-05-29T11:19:08;23.10;87.50
49224;DHT22;35050;51.316;5.994;2023-05-29T11:24:36;22.90;87.90
49224;DHT22;35050;51.316;5.994;2023-05-29T11:27:03;22.80;87.30
49224;DHT22;35050;51.316;5.994;2023-05-29T11:29:33;23.20;88.50
49224;DHT22;35050;51.316;5.994;2023-05-29T11:32:05;22.80;87.30
49224;DHT22;35050;51.316;5.994;2023-05-29T11:34:33;22.90;86.50
49224;DHT22;35050;51.316;5.994;2023-05-29T11:37:03;23.10;85.60
49224;DHT22;35050;51.316;5.994;2023-05-29T11:39:29;23.00;86.10
49224;DHT22;35050;51.316;5.994;2023-05-29T11:41:56;23.10;86.40
49224;DHT22;35050;51.316;5.994;2023-05-29T11:44:25;23.30;85.70
49224;DHT22;35050;51.316;5.994;2023-05-29T11:47:06;23.20;85.30
49224;DHT22;35050;51.316;5.994;2023-05-29T11:49:36;23.40;84.70
49224;DHT22;35050;51.316;5.994;2023-05-29T11:52:06;23.60;86.20
49224;DHT22;35050;51.316;5.994;2023-05-29T11:54:35;23.40;84.80
49224;DHT22;35050;51.316;5.994;2023-05-29T11:57:02;23.50;84.60
49224;DHT22;35050;51.316;5.994;2023-05-29T11:59:34;23.50;83.70
49224;DHT22;35050;51.316;5.994;2023-05-29T12:02:03;23.20;85.30
49224;DHT22;35050;51.316;5.994;2023-05-29T12:04:29;22.90;84.90
49224;DHT22;35050;51.316;5.994;2023-05-29T12:06:55;23.00;84.70
49224;DHT22;35050;51.316;5.994;2023-05-29T12:09:25;23.20;86.00
49224;DHT22;35050;51.316;5.994;2023-05-29T12:11:51;23.70;85.20
49224;DHT22;35050;51.316;5.994;2023-05-29T12:14:17;23.10;84.70
49224;DHT22;35050;51.316;5.994;2023-05-29T12:16:42;23.40;84.50
49224;DHT22;35050;51.316;5.994;2023-05-29T12:19:08;23.40;83.40
49224;DHT22;35050;51.316;5.994;2023-05-29T12:21:34;23.40;84.70
49224;DHT22;35050;51.316;5.994;2023-05-29T12:24:00;23.50;82.60
49224;DHT22;35050;51.316;5.994;2023-05-29T12:26:26;23.60;83.50
49224;DHT22;35050;51.316;5.994;2023-05-29T12:28:52;23.50;83.10
49224;DHT22;35050;51.316;5.994;2023-05-29T12:31:30;23.40;83.30
49224;DHT22;35050;51.316;5.994;2023-05-29T12:34:10;22.90;83.70
49224;DHT22;35050;51.316;5.994;2023-05-29T12:36:40;23.20;83.10
49224;DHT22;35050;51.316;5.994;2023-05-29T12:39:07;23.80;82.70
49224;DHT22;35050;51.316;5.994;2023-05-29T12:41:37;23.90;82.80
49224;DHT22;35050;51.316;5.994;2023-05-29T12:44:05;24.30;82.30
49224;DHT22;35050;51.316;5.994;2023-05-29T12:46:41;24.10;81.80
49224;DHT22;35050;51.316;5.994;2023-05-29T12:49:15;23.60;82.10
49224;DHT22;35050;51.316;5.994;2023-05-29T12:51:42;23.80;81.40
49224;DHT22;35050;51.316;5.994;2023-05-29T12:54:15;23.70;82.50
49224;DHT22;35050;51.316;5.994;2023-05-29T12:56:41;24.10;81.60
49224;DHT22;35050;51.316;5.994;2023-05-29T12:59:08;23.90;81.00
49224;DHT22;35050;51.316;5.994;2023-05-29T13:01:34;24.10;81.40
49224;DHT22;35050;51.316;5.994;2023-05-29T13:04:00;23.50;81.80
49224;DHT22;35050;51.316;5.994;2023-05-29T13:06:25;23.70;81.80
49224;DHT22;35050;51.316;5.994;2023-05-29T13:08:51;23.50;80.70
49224;DHT22;35050;51.316;5.994;2023-05-29T13:11:17;23.10;81.40
49224;DHT22;35050;51.316;5.994;2023-05-29T13:13:43;23.20;80.80
49224;DHT22;35050;51.316;5.994;2023-05-29T13:16:09;23.50;81.70
49224;DHT22;35050;51.316;5.994;2023-05-29T13:18:34;23.20;81.50
49224;DHT22;35050;51.316;5.994;2023-05-29T13:21:01;23.10;82.00
49224;DHT22;35050;51.316;5.994;2023-05-29T13:23:26;23.20;82.20
49224;DHT22;35050;51.316;5.994;2023-05-29T13:25:52;23.10;81.40
49224;DHT22;35050;51.316;5.994;2023-05-29T13:28:18;23.00;81.90
49224;DHT22;35050;51.316;5.994;2023-05-29T13:30:44;23.50;83.40
49224;DHT22;35050;51.316;5.994;2023-05-29T13:33:09;23.50;81.50
49224;DHT22;35050;51.316;5.994;2023-05-29T13:35:35;23.70;81.80
49224;DHT22;35050;51.316;5.994;2023-05-29T13:38:01;23.90;81.60
49224;DHT22;35050;51.316;5.994;2023-05-29T13:40:27;23.60;81.50
49224;DHT22;35050;51.316;5.994;2023-05-29T13:42:54;23.60;82.00
49224;DHT22;35050;51.316;5.994;2023-05-29T13:45:20;23.60;81.30
49224;DHT22;35050;51.316;5.994;2023-05-29T13:47:45;23.90;81.40
49224;DHT22;35050;51.316;5.994;2023-05-29T13:50:11;23.60;80.80
49224;DHT22;35050;51.316;5.994;2023-05-29T13:52:38;23.40;82.80
49224;DHT22;35050;51.316;5.994;2023-05-29T13:55:04;23.20;82.00
49224;DHT22;35050;51.316;5.994;2023-05-29T13:57:34;23.20;81.10
49224;DHT22;35050;51.316;5.994;2023-05-29T14:00:00;23.30;80.90
49224;DHT22;35050;51.316;5.994;2023-05-29T14:02:25;23.20;81.40
49224;DHT22;35050;51.316;5.994;2023-05-29T14:04:51;23.20;81.50
49224;DHT22;35050;51.316;5.994;2023-05-29T14:07:17;23.20;82.10
49224;DHT22;35050;51.316;5.994;2023-05-29T14:09:43;23.00;81.60
49224;DHT22;35050;51.316;5.994;2023-05-29T14:12:09;22.50;81.90
49224;DHT22;35050;51.316;5.994;2023-05-29T14:14:34;22.30;82.30
49224;DHT22;35050;51.316;5.994;2023-05-29T14:17:00;22.50;82.70
49224;DHT22;35050;51.316;5.994;2023-05-29T14:19:26;22.30;82.90
49224;DHT22;35050;51.316;5.994;2023-05-29T14:21:51;23.10;84.10
49224;DHT22;35050;51.316;5.994;2023-05-29T14:24:17;23.00;83.40
49224;DHT22;35050;51.316;5.994;2023-05-29T14:26:44;22.60;81.60
49224;DHT22;35050;51.316;5.994;2023-05-29T14:29:12;22.70;82.10
49224;DHT22;35050;51.316;5.994;2023-05-29T14:31:39;22.50;82.20
49224;DHT22;35050;51.316;5.994;2023-05-29T14:34:05;22.60;82.70
49224;DHT22;35050;51.316;5.994;2023-05-29T14:36:31;22.90;83.20
49224;DHT22;35050;51.316;5.994;2023-05-29T14:38:57;22.80;82.30
49224;DHT22;35050;51.316;5.994;2023-05-29T14:41:22;23.10;82.50
49224;DHT22;35050;51.316;5.994;2023-05-29T14:43:49;22.90;82.60
49224;DHT22;35050;51.316;5.994;2023-05-29T14:46:16;22.90;81.40
49224;DHT22;35050;51.316;5.994;2023-05-29T14:48:42;23.00;81.90
49224;DHT22;35050;51.316;5.994;2023-05-29T14:51:07;23.20;81.40
49224;DHT22;35050;51.316;5.994;2023-05-29T14:53:33;23.60;82.00
49224;DHT22;35050;51.316;5.994;2023-05-29T14:55:59;23.90;80.80
49224;DHT22;35050;51.316;5.994;2023-05-29T14:58:24;23.40;79.70
49224;DHT22;35050;51.316;5.994;2023-05-29T15:00:50;23.50;80.70
49224;DHT22;35050;51.316;5.994;2023-05-29T15:03:15;23.50;79.90
49224;DHT22;35050;51.316;5.994;2023-05-29T15:05:41;23.70;79.90
49224;DHT22;35050;51.316;5.994;2023-05-29T15:08:07;23.50;79.80
49224;DHT22;35050;51.316;5.994;2023-05-29T15:10:33;23.70;77.50
49224;DHT22;35050;51.316;5.994;2023-05-29T15:12:58;23.70;77.20
49224;DHT22;35050;51.316;5.994;2023-05-29T15:15:27;23.20;78.10
49224;DHT22;35050;51.316;5.994;2023-05-29T15:17:53;23.40;77.00
49224;DHT22;35050;51.316;5.994;2023-05-29T15:20:25;23.70;76.90
49224;DHT22;35050;51.316;5.994;2023-05-29T15:22:52;23.50;77.30
49224;DHT22;35050;51.316;5.994;2023-05-29T15:25:18;22.80;76.50
49224;DHT22;35050;51.316;5.994;2023-05-29T15:27:44;23.20;76.80
49224;DHT22;35050;51.316;5.994;2023-05-29T15:30:18;23.50;77.20
49224;DHT22;35050;51.316;5.994;2023-05-29T15:32:46;23.50;76.80
49224;DHT22;35050;51.316;5.994;2023-05-29T15:35:14;23.50;77.00
49224;DHT22;35050;51.316;5.994;2023-05-29T15:37:41;23.40;75.50
49224;DHT22;35050;51.316;5.994;2023-05-29T15:40:08;23.20;75.00
49224;DHT22;35050;51.316;5.994;2023-05-29T15:42:35;23.50;76.90
49224;DHT22;35050;51.316;5.994;2023-05-29T15:45:04;23.40;74.80
49224;DHT22;35050;51.316;5.994;2023-05-29T15:47:30;23.80;75.40
49224;DHT22;35050;51.316;5.994;2023-05-29T15:49:57;23.70;74.80
49224;DHT22;35050;51.316;5.994;2023-05-29T15:52:25;23.80;74.90
49224;DHT22;35050;51.316;5.994;2023-05-29T15:54:51;23.70;73.60